createdAt,value
2023-05-22T00:01:26.535Z,0.10
2023-05-22T00:03:54.575Z,0.28
2023-05-22T00:06:25.541Z,0.10
2023-05-22T00:08:52.727Z,0.30
2023-05-22T00:11:19.736Z,0.20
2023-05-22T00:13:46.779Z,0.40
2023-05-22T00:16:13.817Z,0.28
2023-05-22T00:18:44.593Z,0.40
2023-05-22T00:21:11.645Z,0.30
2023-05-22T00:23:38.605Z,0.30
2023-05-22T00:26:05.782Z,0.20
2023-05-22T00:28:32.741Z,0.20
2023-05-22T00:30:59.768Z,0.17
2023-05-22T00:33:26.895Z,0.10
2023-05-22T00:35:53.879Z,0.20
2023-05-22T00:38:32.357Z,0.20
2023-05-22T00:41:00.394Z,0.20
2023-05-22T00:43:27.669Z,0.30
2023-05-22T00:45:54.739Z,0.20
2023-05-22T00:48:22.302Z,0.30
2023-05-22T00:50:50.372Z,0.20
2023-05-22T00:53:19.121Z,0.30
2023-05-22T00:55:46.105Z,0.28
2023-05-22T00:58:17.737Z,0.30
2023-05-22T01:00:46.589Z,0.17
2023-05-22T01:03:14.114Z,0.10
2023-05-22T01:05:41.611Z,0.88
2023-05-22T01:08:08.875Z,0.43
2023-05-22T01:10:37.139Z,0.20
2023-05-22T01:13:10.426Z,0.20
2023-05-22T01:15:55.370Z,0.20
2023-05-22T01:18:38.822Z,0.30
2023-05-22T01:21:13.541Z,0.20
2023-05-22T01:23:48.691Z,0.20
2023-05-22T01:26:28.974Z,0.43
2023-05-22T01:29:26.110Z,0.20
2023-05-22T01:31:53.950Z,0.25
2023-05-22T01:34:23.665Z,0.17
2023-05-22T01:36:51.078Z,0.10
2023-05-22T01:39:18.844Z,0.30
2023-05-22T01:41:46.056Z,0.17
2023-05-22T01:44:13.219Z,0.28
2023-05-22T01:46:41.104Z,0.20
2023-05-22T01:49:09.095Z,0.32
2023-05-22T01:51:53.638Z,0.25
2023-05-22T01:54:43.842Z,0.30
2023-05-22T01:57:25.127Z,0.10
2023-05-22T02:00:14.150Z,0.20
2023-05-22T02:02:46.149Z,0.20
2023-05-22T02:05:13.384Z,0.30
2023-05-22T02:07:40.563Z,0.30
2023-05-22T02:10:10.401Z,0.20
2023-05-22T02:12:39.700Z,0.20
2023-05-22T02:15:08.594Z,0.40
2023-05-22T02:17:42.571Z,0.10
2023-05-22T02:20:16.934Z,0.17
2023-05-22T02:22:45.057Z,0.60
2023-05-22T02:25:16.930Z,0.30
2023-05-22T02:27:45.803Z,0.28
2023-05-22T02:30:15.142Z,0.30
2023-05-22T02:32:44.446Z,0.57
2023-05-22T02:35:11.645Z,0.32
2023-05-22T02:37:38.773Z,0.30
2023-05-22T02:40:06.869Z,0.28
2023-05-22T02:42:34.313Z,0.63
2023-05-22T02:45:02.045Z,0.25
2023-05-22T02:47:32.478Z,0.40
2023-05-22T02:49:59.619Z,0.28
2023-05-22T02:52:28.258Z,0.30
2023-05-22T02:54:55.282Z,0.50
2023-05-22T02:57:22.988Z,0.30
2023-05-22T02:59:50.003Z,0.30
2023-05-22T03:02:17.701Z,0.40
2023-05-22T03:04:44.715Z,0.30
2023-05-22T03:07:12.424Z,0.57
2023-05-22T03:09:39.719Z,0.28
2023-05-22T03:12:06.960Z,0.50
2023-05-22T03:14:34.263Z,0.70
2023-05-22T03:17:01.343Z,0.40
2023-05-22T03:19:28.460Z,0.40
2023-05-22T03:21:56.493Z,0.55
2023-05-22T03:24:23.597Z,0.73
2023-05-22T03:26:50.552Z,0.43
2023-05-22T03:29:27.467Z,0.35
2023-05-22T03:31:56.598Z,0.28
2023-05-22T03:34:27.378Z,0.40
2023-05-22T03:36:54.868Z,0.30
2023-05-22T03:39:21.900Z,0.60
2023-05-22T03:41:55.885Z,0.25
2023-05-22T03:44:24.389Z,0.38
2023-05-22T03:46:51.401Z,0.17
2023-05-22T03:49:18.476Z,0.43
2023-05-22T03:51:45.764Z,0.30
2023-05-22T03:54:14.141Z,0.20
2023-05-22T03:56:48.580Z,0.30
2023-05-22T03:59:16.475Z,0.30
2023-05-22T04:01:43.849Z,0.30
2023-05-22T04:04:12.183Z,0.40
2023-05-22T04:06:43.351Z,0.20
2023-05-22T04:09:14.196Z,0.40
2023-05-22T04:11:42.414Z,0.20
2023-05-22T04:14:36.057Z,0.30
2023-05-22T04:17:06.990Z,0.30
2023-05-22T04:19:34.182Z,0.17
2023-05-22T04:22:01.175Z,0.40
2023-05-22T04:24:28.158Z,0.45
2023-05-22T04:26:55.122Z,0.35
2023-05-22T04:29:22.785Z,0.40
2023-05-22T04:31:49.719Z,0.40
2023-05-22T04:34:17.039Z,0.20
2023-05-22T04:36:45.314Z,0.70
2023-05-22T04:39:13.866Z,0.77
2023-05-22T04:41:41.023Z,0.20
2023-05-22T04:44:08.139Z,0.50
2023-05-22T04:46:35.916Z,0.50
2023-05-22T04:49:03.196Z,0.63
2023-05-22T04:51:31.079Z,0.43
2023-05-22T04:53:58.605Z,0.75
2023-05-22T04:56:35.375Z,0.43
2023-05-22T04:59:05.592Z,1.00
2023-05-22T05:01:35.205Z,0.52
2023-05-22T05:04:03.798Z,0.70
2023-05-22T05:06:30.959Z,0.50
2023-05-22T05:08:58.103Z,0.70
2023-05-22T05:11:25.186Z,0.70
2023-05-22T05:13:52.415Z,0.60
2023-05-22T05:16:19.415Z,0.60
2023-05-22T05:18:46.431Z,0.77
2023-05-22T05:21:13.476Z,0.52
2023-05-22T05:23:41.023Z,0.77
2023-05-22T05:26:08.349Z,0.85
2023-05-22T05:28:35.570Z,0.93
2023-05-22T05:31:02.851Z,0.47
2023-05-22T05:33:50.446Z,0.60
2023-05-22T05:36:29.506Z,0.80
2023-05-22T05:38:58.444Z,0.50
2023-05-22T05:41:26.717Z,0.60
2023-05-22T05:44:01.214Z,0.47
2023-05-22T05:46:31.270Z,0.50
2023-05-22T05:48:58.491Z,0.30
2023-05-22T05:51:26.431Z,0.40
2023-05-22T05:53:53.767Z,0.47
2023-05-22T05:56:21.617Z,0.35
2023-05-22T05:58:48.973Z,0.32
2023-05-22T06:01:51.502Z,0.28
2023-05-22T06:04:28.093Z,0.57
2023-05-22T06:06:55.183Z,0.20
2023-05-22T06:09:30.288Z,1.00
2023-05-22T06:12:16.434Z,0.43
2023-05-22T06:14:45.390Z,0.40
2023-05-22T06:17:13.590Z,0.20
2023-05-22T06:19:42.508Z,0.55
2023-05-22T06:22:09.956Z,0.45
2023-05-22T06:24:39.558Z,0.30
2023-05-22T06:27:12.328Z,0.35
2023-05-22T06:29:39.369Z,0.55
2023-05-22T06:32:07.545Z,0.57
2023-05-22T06:34:36.421Z,0.47
2023-05-22T06:37:03.764Z,0.32
2023-05-22T06:39:39.080Z,0.55
2023-05-22T06:42:17.014Z,0.60
2023-05-22T06:45:02.687Z,0.35
2023-05-22T06:47:38.438Z,0.30
2023-05-22T06:50:06.700Z,0.50
2023-05-22T06:52:34.412Z,0.38
2023-05-22T06:55:05.673Z,0.98
2023-05-22T06:57:43.450Z,0.30
2023-05-22T07:00:12.775Z,0.85
2023-05-22T07:02:58.679Z,0.20
2023-05-22T07:05:38.433Z,0.57
2023-05-22T07:08:06.267Z,0.70
2023-05-22T07:10:33.910Z,0.55
2023-05-22T07:13:00.951Z,0.60
2023-05-22T07:15:28.257Z,0.40
2023-05-22T07:17:57.823Z,0.47
2023-05-22T07:20:26.209Z,0.73
2023-05-22T07:23:28.624Z,0.82
2023-05-22T07:25:55.741Z,0.20
2023-05-22T07:28:26.622Z,1.13
2023-05-22T07:31:01.514Z,0.50
2023-05-22T07:33:28.794Z,0.50
2023-05-22T07:35:57.378Z,0.77
2023-05-22T07:38:25.031Z,0.57
2023-05-22T07:41:02.856Z,0.40
2023-05-22T07:43:31.442Z,0.30
2023-05-22T07:45:59.789Z,0.52
2023-05-22T07:48:30.912Z,0.63
2023-05-22T07:50:58.147Z,0.68
2023-05-22T07:53:25.397Z,0.57
2023-05-22T07:55:56.472Z,0.57
2023-05-22T07:58:24.295Z,0.55
2023-05-22T08:00:52.252Z,0.35
2023-05-22T08:03:20.966Z,0.30
2023-05-22T08:05:49.593Z,0.40
2023-05-22T08:08:16.724Z,0.30
2023-05-22T08:11:01.818Z,0.52
2023-05-22T08:16:00.682Z,0.40
2023-05-22T08:18:29.448Z,0.30
2023-05-22T08:20:57.049Z,0.60
2023-05-22T08:23:24.114Z,0.30
2023-05-22T08:25:51.150Z,0.50
2023-05-22T08:28:18.160Z,0.50
2023-05-22T08:30:45.189Z,0.50
2023-05-22T08:33:12.466Z,0.30
2023-05-22T08:35:39.757Z,0.32
2023-05-22T08:38:09.555Z,1.15
2023-05-22T08:40:41.306Z,0.20
2023-05-22T08:43:09.870Z,0.40
2023-05-22T08:45:37.633Z,0.20
2023-05-22T08:48:08.346Z,0.30
2023-05-22T08:50:37.003Z,0.30
2023-05-22T08:53:04.078Z,0.20
2023-05-22T08:55:31.091Z,0.10
2023-05-22T08:57:58.191Z,0.20
2023-05-22T09:00:27.685Z,0.10
2023-05-22T09:02:55.811Z,0.30
2023-05-22T09:05:26.741Z,0.20
2023-05-22T09:08:02.521Z,0.28
2023-05-22T09:10:36.019Z,0.10
2023-05-22T09:13:11.320Z,0.10
2023-05-22T09:15:38.391Z,0.20
2023-05-22T09:18:08.565Z,0.20
2023-05-22T09:20:36.594Z,0.30
2023-05-22T09:23:22.123Z,0.22
2023-05-22T09:25:49.137Z,0.32
2023-05-22T09:28:16.232Z,0.35
2023-05-22T09:30:43.559Z,0.50
2023-05-22T09:33:12.929Z,0.20
2023-05-22T09:35:42.070Z,0.30
2023-05-22T09:38:10.234Z,0.30
2023-05-22T09:40:39.293Z,0.35
2023-05-22T09:43:12.797Z,0.40
2023-05-22T09:45:39.907Z,0.50
2023-05-22T09:48:07.432Z,0.57
2023-05-22T09:50:34.831Z,0.30
2023-05-22T09:53:05.760Z,0.63
2023-05-22T09:55:32.762Z,0.30
2023-05-22T09:58:05.331Z,0.40
2023-05-22T10:00:32.816Z,0.20
2023-05-22T10:03:05.961Z,0.13
2023-05-22T10:05:33.979Z,0.15
2023-05-22T10:08:22.216Z,2.30
2023-05-22T10:10:52.104Z,0.20
2023-05-22T10:13:20.564Z,0.10
2023-05-22T10:15:48.799Z,0.20
2023-05-22T10:18:16.973Z,0.30
2023-05-22T10:20:44.597Z,0.50
2023-05-22T10:23:11.738Z,0.40
2023-05-22T10:25:39.101Z,0.10
2023-05-22T10:28:07.000Z,0.17
2023-05-22T10:30:44.952Z,0.15
2023-05-22T10:33:52.686Z,0.20
2023-05-22T10:36:40.845Z,0.20
2023-05-22T10:39:26.499Z,0.20
2023-05-22T10:41:53.966Z,0.20
2023-05-22T10:44:22.253Z,0.25
2023-05-22T10:46:50.338Z,0.30
2023-05-22T10:49:22.975Z,0.35
2023-05-22T10:51:55.506Z,0.20
2023-05-22T10:54:41.291Z,0.65
2023-05-22T10:57:18.918Z,0.20
2023-05-22T10:59:47.534Z,0.10
2023-05-22T11:02:21.985Z,0.20
2023-05-22T11:04:49.403Z,0.30
2023-05-22T11:07:16.583Z,0.20
2023-05-22T11:09:45.889Z,1.73
2023-05-22T11:12:20.722Z,0.20
2023-05-22T11:14:56.429Z,0.55
2023-05-22T11:17:26.052Z,0.17
2023-05-22T11:20:00.775Z,0.10
2023-05-22T11:22:57.300Z,1.20
2023-05-22T11:25:24.961Z,0.10
2023-05-22T11:27:52.792Z,0.10
2023-05-22T11:30:19.753Z,0.17
2023-05-22T11:32:48.083Z,0.20
2023-05-22T11:35:18.797Z,0.20
2023-05-22T11:37:46.486Z,0.10
2023-05-22T11:40:21.133Z,0.10
2023-05-22T11:42:48.316Z,0.17
2023-05-22T11:45:21.382Z,0.20
2023-05-22T11:47:48.888Z,0.20
2023-05-22T11:50:22.701Z,0.28
2023-05-22T11:52:53.650Z,0.35
2023-05-22T11:55:20.710Z,0.20
2023-05-22T11:57:50.297Z,0.47
2023-05-22T12:00:18.091Z,0.35
2023-05-22T12:02:47.632Z,0.20
2023-05-22T12:05:16.578Z,0.20
2023-05-22T12:07:43.589Z,0.10
2023-05-22T12:10:11.126Z,0.10
2023-05-22T12:12:38.953Z,0.68
2023-05-22T12:15:07.126Z,0.20
2023-05-22T12:17:36.293Z,0.35
2023-05-22T12:20:04.684Z,0.10
2023-05-22T12:22:31.740Z,0.20
2023-05-22T12:24:58.707Z,0.20
2023-05-22T12:27:31.695Z,0.17
2023-05-22T12:29:59.860Z,0.30
2023-05-22T12:32:29.200Z,0.50
2023-05-22T12:34:58.016Z,0.10
2023-05-22T12:37:28.208Z,0.40
2023-05-22T12:40:03.546Z,0.10
2023-05-22T12:42:31.252Z,0.20
2023-05-22T12:44:59.883Z,1.23
2023-05-22T12:47:26.976Z,0.20
2023-05-22T12:49:54.000Z,0.10
2023-05-22T12:52:20.972Z,0.10
2023-05-22T12:54:47.979Z,0.20
2023-05-22T12:57:16.875Z,0.22
2023-05-22T12:59:43.989Z,0.10
2023-05-22T13:02:11.270Z,0.20
2023-05-22T13:04:38.302Z,0.20
2023-05-22T13:07:05.997Z,0.22
2023-05-22T13:09:32.984Z,0.70
2023-05-22T13:12:00.151Z,0.95
2023-05-22T13:14:27.371Z,0.20
2023-05-22T13:16:54.346Z,0.10
2023-05-22T13:19:21.300Z,0.40
2023-05-22T13:21:48.366Z,0.30
2023-05-22T13:24:15.433Z,0.13
2023-05-22T13:26:42.410Z,0.30
2023-05-22T13:29:09.368Z,0.10
2023-05-22T13:31:37.931Z,0.20
2023-05-22T13:34:05.503Z,0.10
2023-05-22T13:36:32.709Z,0.30
2023-05-22T13:38:59.744Z,0.10
2023-05-22T13:41:26.792Z,0.30
2023-05-22T13:43:53.958Z,0.30
2023-05-22T13:46:21.498Z,0.20
2023-05-22T13:48:48.610Z,0.30
2023-05-22T13:51:15.608Z,0.10
2023-05-22T13:53:42.662Z,0.10
2023-05-22T13:56:09.624Z,0.35
2023-05-22T13:58:36.709Z,0.30
2023-05-22T14:01:03.732Z,0.20
2023-05-22T14:03:30.842Z,0.15
2023-05-22T14:05:57.867Z,0.25
2023-05-22T14:08:25.012Z,0.20
2023-05-22T14:10:52.062Z,0.13
2023-05-22T14:13:19.056Z,0.30
2023-05-22T14:15:49.144Z,0.75
2023-05-22T14:18:16.783Z,0.52
2023-05-22T14:20:44.611Z,0.45
2023-05-22T14:23:14.983Z,0.50
2023-05-22T14:25:45.459Z,0.32
2023-05-22T14:28:12.736Z,0.20
2023-05-22T14:30:39.924Z,0.20
2023-05-22T14:33:07.251Z,0.40
2023-05-22T14:35:34.326Z,0.38
2023-05-22T14:38:01.612Z,0.38
2023-05-22T14:40:28.633Z,1.00
2023-05-22T14:42:55.763Z,0.30
2023-05-22T14:45:22.809Z,0.22
2023-05-22T14:47:50.030Z,0.40
2023-05-22T14:50:19.719Z,0.20
2023-05-22T14:52:48.717Z,0.38
2023-05-22T14:55:16.585Z,0.20
2023-05-22T14:57:43.809Z,0.30
2023-05-22T15:00:12.079Z,0.22
2023-05-22T15:02:39.071Z,0.60
2023-05-22T15:05:07.238Z,0.50
2023-05-22T15:10:05.453Z,0.28
2023-05-22T15:12:32.593Z,0.40
2023-05-22T15:14:59.663Z,0.25
2023-05-22T15:17:26.622Z,0.30
2023-05-22T15:19:53.674Z,0.30
2023-05-22T15:22:20.638Z,0.22
2023-05-22T15:24:48.188Z,0.45
2023-05-22T15:27:15.902Z,0.38
2023-05-22T15:29:42.837Z,0.50
2023-05-22T15:32:09.952Z,0.30
2023-05-22T15:34:37.054Z,0.50
2023-05-22T15:37:04.109Z,0.30
2023-05-22T15:39:31.533Z,0.20
2023-05-22T15:42:06.363Z,0.65
2023-05-22T15:44:33.913Z,0.30
2023-05-22T15:47:00.914Z,0.28
2023-05-22T15:49:30.963Z,0.13
2023-05-22T15:51:58.368Z,0.20
2023-05-22T15:54:25.339Z,0.20
2023-05-22T15:56:52.403Z,0.20
2023-05-22T15:59:19.387Z,0.20
2023-05-22T16:01:46.574Z,0.32
2023-05-22T16:04:13.749Z,0.30
2023-05-22T16:06:40.954Z,0.25
2023-05-22T16:09:08.091Z,0.95
2023-05-22T16:11:35.151Z,0.40
2023-05-22T16:14:02.071Z,0.10
2023-05-22T16:16:29.190Z,0.10
2023-05-22T16:18:56.232Z,0.30
2023-05-22T16:21:23.280Z,0.20
2023-05-22T16:23:50.242Z,0.20
2023-05-22T16:26:17.181Z,0.20
2023-05-22T16:28:44.130Z,0.10
2023-05-22T16:31:12.853Z,0.10
2023-05-22T16:33:40.024Z,0.35
2023-05-22T16:36:07.320Z,0.10
2023-05-22T16:38:34.304Z,0.25
2023-05-22T16:41:01.408Z,0.10
2023-05-22T16:43:28.358Z,0.20
2023-05-22T16:45:55.402Z,0.30
2023-05-22T16:48:22.346Z,0.10
2023-05-22T16:50:49.403Z,0.10
2023-05-22T16:53:19.045Z,0.20
2023-05-22T16:55:46.293Z,0.22
2023-05-22T16:58:14.013Z,0.10
2023-05-22T17:00:41.419Z,0.20
2023-05-22T17:03:09.387Z,0.20
2023-05-22T17:05:37.747Z,0.30
2023-05-22T17:08:04.894Z,0.15
2023-05-22T17:10:31.911Z,0.20
2023-05-22T17:12:58.931Z,0.10
2023-05-22T17:15:26.099Z,0.40
2023-05-22T17:17:53.184Z,0.30
2023-05-22T17:20:22.825Z,0.10
2023-05-22T17:22:50.428Z,0.10
2023-05-22T17:25:17.756Z,0.10
2023-05-22T17:27:44.961Z,0.25
2023-05-22T17:30:12.175Z,0.10
2023-05-22T17:32:39.208Z,0.13
2023-05-22T17:35:06.907Z,0.10
2023-05-22T17:37:34.289Z,0.13
2023-05-22T17:40:01.351Z,0.10
2023-05-22T17:42:28.607Z,0.17
2023-05-22T17:44:55.724Z,0.35
2023-05-22T17:47:22.919Z,0.20
2023-05-22T17:49:49.870Z,0.77
2023-05-22T17:52:16.812Z,0.10
2023-05-22T17:54:43.753Z,0.25
2023-05-22T17:57:11.191Z,0.10
2023-05-22T17:59:40.346Z,0.10
2023-05-22T18:02:08.381Z,0.10
2023-05-22T18:04:36.277Z,0.10
2023-05-22T18:07:05.623Z,0.10
2023-05-22T18:09:32.785Z,0.10
2023-05-22T18:12:01.626Z,0.25
2023-05-22T18:14:28.681Z,0.10
2023-05-22T18:16:55.887Z,0.10
2023-05-22T18:19:22.844Z,0.10
2023-05-22T18:21:50.133Z,0.13
2023-05-22T18:24:18.544Z,0.10
2023-05-22T18:26:46.126Z,0.10
2023-05-22T18:29:13.244Z,0.10
2023-05-22T18:31:40.419Z,0.13
2023-05-22T18:34:07.482Z,0.10
2023-05-22T18:36:34.462Z,0.10
2023-05-22T18:39:01.614Z,0.10
2023-05-22T18:41:28.643Z,0.10
2023-05-22T18:43:55.660Z,0.10
2023-05-22T18:46:23.848Z,0.10
2023-05-22T18:48:50.934Z,0.00
2023-05-22T18:51:20.041Z,0.05
2023-05-22T18:53:47.135Z,0.10
2023-05-22T18:56:14.233Z,0.05
2023-05-22T18:58:41.605Z,0.10
2023-05-22T19:01:08.818Z,0.10
2023-05-22T19:03:38.025Z,0.10
2023-05-22T19:06:05.916Z,0.10
2023-05-22T19:09:49.756Z,0.10
2023-05-22T19:12:18.773Z,0.13
2023-05-22T19:14:48.480Z,0.10
2023-05-22T19:17:16.085Z,0.10
2023-05-22T19:19:43.169Z,0.10
2023-05-22T19:22:10.204Z,0.20
2023-05-22T19:24:37.370Z,0.10
2023-05-22T19:27:04.608Z,0.10
2023-05-22T19:29:31.660Z,0.10
2023-05-22T19:31:58.600Z,0.30
2023-05-22T19:34:25.640Z,0.10
2023-05-22T19:36:57.400Z,0.10
2023-05-22T19:39:24.883Z,0.32
2023-05-22T19:41:53.177Z,0.25
2023-05-22T19:44:21.617Z,0.57
2023-05-22T19:46:50.277Z,0.20
2023-05-22T19:49:17.863Z,0.10
2023-05-22T19:51:45.877Z,0.60
2023-05-22T19:54:12.814Z,0.20
2023-05-22T19:56:39.888Z,0.20
2023-05-22T19:59:06.864Z,0.52
2023-05-22T20:01:33.963Z,0.40
2023-05-22T20:04:01.155Z,0.20
2023-05-22T20:06:31.510Z,0.32
2023-05-22T20:08:58.625Z,0.28
2023-05-22T20:11:26.153Z,0.30
2023-05-22T20:13:54.515Z,0.30
2023-05-22T20:16:21.683Z,0.32
2023-05-22T20:18:48.941Z,0.40
2023-05-22T20:21:15.909Z,0.20
2023-05-22T20:23:42.973Z,0.70
2023-05-22T20:26:09.952Z,0.70
2023-05-22T20:28:36.967Z,0.70
2023-05-22T20:31:05.873Z,0.47
2023-05-22T20:33:33.085Z,0.60
2023-05-22T20:36:01.444Z,0.30
2023-05-22T20:38:29.281Z,0.30
2023-05-22T20:40:58.396Z,0.20
2023-05-22T20:43:26.226Z,0.40
2023-05-22T20:45:54.370Z,0.30
2023-05-22T20:48:21.392Z,0.43
2023-05-22T20:50:50.483Z,0.50
2023-05-22T20:53:17.627Z,0.40
2023-05-22T20:55:45.149Z,0.68
2023-05-22T20:58:16.479Z,0.70
2023-05-22T21:00:43.549Z,0.57
2023-05-22T21:03:11.724Z,0.75
2023-05-22T21:05:38.928Z,1.38
2023-05-22T21:08:06.256Z,0.88
2023-05-22T21:10:37.990Z,0.68
2023-05-22T21:13:05.360Z,0.55
2023-05-22T21:15:36.805Z,0.70
2023-05-22T21:18:04.194Z,0.77
2023-05-22T21:20:31.617Z,0.30
2023-05-22T21:22:58.808Z,0.63
2023-05-22T21:25:26.499Z,0.60
2023-05-22T21:27:54.584Z,1.33
2023-05-22T21:30:21.789Z,0.90
2023-05-22T21:32:54.347Z,1.08
2023-05-22T21:35:21.595Z,0.70
2023-05-22T21:37:48.605Z,0.93
2023-05-22T21:40:16.198Z,0.85
2023-05-22T21:42:46.324Z,0.90
2023-05-22T21:45:14.770Z,1.35
2023-05-22T21:47:42.039Z,0.75
2023-05-22T21:50:09.575Z,0.73
2023-05-22T21:52:37.469Z,0.68
2023-05-22T21:55:04.939Z,1.52
2023-05-22T21:57:32.288Z,0.73
2023-05-22T21:59:59.369Z,0.70
2023-05-22T22:02:29.960Z,0.63
2023-05-22T22:05:00.850Z,1.08
2023-05-22T22:07:28.324Z,0.88
2023-05-22T22:09:57.427Z,0.88
2023-05-22T22:12:24.736Z,0.93
2023-05-22T22:14:51.928Z,0.70
2023-05-22T22:17:23.608Z,0.77
2023-05-22T22:19:53.394Z,0.75
2023-05-22T22:22:22.545Z,0.70
2023-05-22T22:24:49.746Z,1.25
2023-05-22T22:27:16.980Z,1.05
2023-05-22T22:29:44.007Z,1.45
2023-05-22T22:32:12.026Z,1.13
2023-05-22T22:34:39.109Z,0.65
2023-05-22T22:37:06.865Z,1.00
2023-05-22T22:39:33.828Z,0.80
2023-05-22T22:42:04.244Z,0.90
2023-05-22T22:44:32.130Z,0.90
2023-05-22T22:47:01.726Z,1.42
2023-05-22T22:49:28.970Z,0.90
2023-05-22T22:51:56.419Z,0.90
2023-05-22T22:54:23.961Z,1.05
2023-05-22T22:56:51.397Z,1.20
2023-05-22T22:59:18.379Z,1.27
2023-05-22T23:01:45.528Z,1.63
2023-05-22T23:04:13.012Z,1.73
2023-05-22T23:06:42.474Z,1.42
2023-05-22T23:09:10.933Z,1.30
2023-05-22T23:11:38.486Z,1.80
2023-05-22T23:14:07.767Z,1.38
2023-05-22T23:16:40.815Z,1.17
2023-05-22T23:19:08.612Z,1.20
2023-05-22T23:21:35.916Z,1.23
2023-05-22T23:24:06.636Z,1.38
2023-05-22T23:26:33.738Z,1.40
2023-05-22T23:29:01.083Z,1.02
2023-05-22T23:31:30.377Z,1.13
2023-05-22T23:33:57.903Z,1.27
2023-05-22T23:36:25.052Z,1.13
2023-05-22T23:38:52.165Z,2.03
2023-05-22T23:41:19.127Z,1.20
2023-05-22T23:43:46.267Z,1.33
2023-05-22T23:46:14.076Z,2.40
2023-05-22T23:48:41.868Z,1.00
2023-05-22T23:51:14.414Z,1.10
2023-05-22T23:53:41.902Z,1.67
2023-05-22T23:56:09.285Z,1.40
2023-05-22T23:58:37.624Z,1.05
